createdAt,value
2018-01-31T01:52:52.468Z,101284.23
2018-01-31T01:55:21.348Z,101288.88
2018-01-31T01:57:50.259Z,101297.27
2018-01-31T02:00:19.195Z,101296.23
2018-01-31T02:02:48.203Z,101289.41
2018-01-31T02:05:17.137Z,101274.41
2018-01-31T02:07:45.932Z,101268.86
2018-01-31T02:10:14.888Z,101272.70
2018-01-31T02:12:43.758Z,101273.82
2018-01-31T02:15:12.703Z,101279.88
2018-01-31T02:17:41.592Z,101277.69
2018-01-31T02:20:10.406Z,101284.31
2018-01-31T02:22:39.453Z,101272.25
2018-01-31T02:25:08.362Z,101262.85
2018-01-31T02:27:37.184Z,101265.03
2018-01-31T02:30:06.083Z,101263.79
2018-01-31T02:32:35.053Z,101259.70
2018-01-31T02:35:03.897Z,101252.33
2018-01-31T02:37:32.902Z,101248.92
2018-01-31T02:40:01.913Z,101251.77
2018-01-31T02:42:30.796Z,101245.45
2018-01-31T02:44:59.578Z,101246.91
2018-01-31T02:47:32.520Z,101249.78
2018-01-31T02:50:01.322Z,101254.19
2018-01-31T02:52:30.161Z,101252.89
2018-01-31T02:55:00.111Z,101248.67
2018-01-31T02:57:29.144Z,101239.92
2018-01-31T02:59:58.036Z,101243.09
2018-01-31T03:02:27.798Z,101242.54
2018-01-31T03:04:56.679Z,101237.64
2018-01-31T03:07:25.713Z,101241.47
2018-01-31T03:09:54.628Z,101241.26
2018-01-31T03:12:23.421Z,101243.73
2018-01-31T03:14:52.270Z,101244.13
2018-01-31T03:17:22.918Z,101242.36
2018-01-31T03:19:51.789Z,101241.63
2018-01-31T03:22:20.739Z,101244.89
2018-01-31T03:24:49.579Z,101247.84
2018-01-31T03:27:18.512Z,101247.66
2018-01-31T03:29:48.380Z,101252.07
2018-01-31T03:32:17.300Z,101249.78
2018-01-31T03:34:46.194Z,101249.45
2018-01-31T03:37:15.056Z,101255.16
2018-01-31T03:39:44.724Z,101259.17
2018-01-31T03:42:13.569Z,101269.30
2018-01-31T03:44:43.348Z,101265.19
2018-01-31T03:47:12.173Z,101274.90
2018-01-31T03:49:51.778Z,101270.78
2018-01-31T03:52:20.744Z,101269.88
2018-01-31T03:54:49.554Z,101265.97
2018-01-31T03:57:18.422Z,101265.87
2018-01-31T03:59:47.297Z,101271.02
2018-01-31T04:02:16.186Z,101276.49
2018-01-31T04:04:45.044Z,101279.02
2018-01-31T04:07:13.986Z,101291.31
2018-01-31T04:09:42.834Z,101295.66
2018-01-31T04:12:12.373Z,101298.75
2018-01-31T04:14:42.161Z,101303.14
2018-01-31T04:17:10.968Z,101305.52
2018-01-31T04:19:40.215Z,101312.56
2018-01-31T04:28:56.891Z,101313.80
2018-01-31T04:31:25.731Z,101314.48
2018-01-31T04:33:54.541Z,101312.82
2018-01-31T04:36:23.454Z,101316.97
2018-01-31T04:38:52.240Z,101318.36
2018-01-31T04:41:21.046Z,101323.34
2018-01-31T04:43:53.613Z,101314.58
2018-01-31T04:46:22.489Z,101309.51
2018-01-31T04:48:51.291Z,101309.19
2018-01-31T04:51:20.261Z,101317.02
2018-01-31T04:53:49.140Z,101313.34
2018-01-31T04:56:17.985Z,101320.15
2018-01-31T04:58:51.270Z,101320.22
2018-01-31T05:01:20.100Z,101321.52
2018-01-31T05:03:49.068Z,101313.33
2018-01-31T05:06:18.765Z,101319.88
2018-01-31T05:08:47.598Z,101325.72
2018-01-31T05:11:16.487Z,101322.48
2018-01-31T05:13:45.305Z,101328.53
2018-01-31T05:16:14.104Z,101334.26
2018-01-31T05:18:42.919Z,101339.75
2018-01-31T05:21:12.968Z,101334.90
2018-01-31T05:23:41.786Z,101331.41
2018-01-31T05:26:10.752Z,101333.00
2018-01-31T05:28:40.014Z,101336.55
2018-01-31T05:31:09.908Z,101335.18
2018-01-31T05:33:38.714Z,101335.73
2018-01-31T05:36:09.197Z,101336.95
2018-01-31T05:38:38.042Z,101334.13
2018-01-31T05:41:06.903Z,101340.09
2018-01-31T05:43:37.461Z,101341.73
2018-01-31T05:46:06.379Z,101336.46
2018-01-31T05:48:36.458Z,101340.09
2018-01-31T05:51:07.046Z,101340.23
2018-01-31T05:53:36.092Z,101344.45
2018-01-31T05:56:04.992Z,101350.75
2018-01-31T05:58:33.920Z,101349.08
2018-01-31T06:01:02.870Z,101350.25
2018-01-31T06:03:31.685Z,101350.12
2018-01-31T06:06:04.247Z,101354.69
2018-01-31T06:08:33.130Z,101352.59
2018-01-31T06:11:02.091Z,101355.75
2018-01-31T06:13:31.113Z,101358.97
2018-01-31T06:16:00.065Z,101353.63
2018-01-31T06:18:28.875Z,101367.69
2018-01-31T06:20:57.837Z,101364.38
2018-01-31T06:23:26.693Z,101374.55
2018-01-31T06:25:56.744Z,101376.17
2018-01-31T06:28:26.131Z,101370.56
2018-01-31T06:30:55.138Z,101373.65
2018-01-31T06:33:24.339Z,101370.75
2018-01-31T06:35:54.254Z,101376.00
2018-01-31T06:38:23.389Z,101379.73
2018-01-31T06:40:52.635Z,101378.66
2018-01-31T06:43:22.611Z,101382.09
2018-01-31T06:45:51.968Z,101381.52
2018-01-31T06:48:22.599Z,101384.55
2018-01-31T06:50:51.698Z,101384.17
2018-01-31T06:53:21.443Z,101388.00
2018-01-31T06:55:50.435Z,101387.34
2018-01-31T06:58:19.634Z,101387.81
2018-01-31T07:00:48.594Z,101395.69
2018-01-31T07:03:18.449Z,101389.09
2018-01-31T07:05:48.296Z,101392.13
2018-01-31T07:08:17.966Z,101401.48
2018-01-31T07:10:47.103Z,101398.29
2018-01-31T07:13:18.072Z,101396.73
2018-01-31T07:15:48.212Z,101391.59
2018-01-31T07:18:17.037Z,101387.53
2018-01-31T07:20:46.671Z,101385.08
2018-01-31T07:23:15.492Z,101379.98
2018-01-31T07:25:44.308Z,101389.21
2018-01-31T07:28:13.157Z,101384.34
2018-01-31T07:30:42.067Z,101384.89
2018-01-31T07:33:11.770Z,101381.14
2018-01-31T07:35:40.765Z,101377.42
2018-01-31T07:38:09.871Z,101377.92
2018-01-31T07:40:39.156Z,101386.88
2018-01-31T07:43:11.110Z,101385.28
2018-01-31T07:45:41.121Z,101390.13
2018-01-31T07:48:10.709Z,101394.00
2018-01-31T07:50:42.340Z,101398.28
2018-01-31T07:53:12.056Z,101388.66
2018-01-31T07:55:41.221Z,101387.58
2018-01-31T07:58:11.102Z,101385.28
2018-01-31T08:00:42.485Z,101382.44
2018-01-31T08:03:12.670Z,101379.50
2018-01-31T08:05:41.602Z,101380.93
2018-01-31T08:08:10.657Z,101371.84
2018-01-31T08:10:43.378Z,101375.05
2018-01-31T08:13:13.188Z,101382.43
2018-01-31T08:15:44.078Z,101383.72
2018-01-31T08:18:14.041Z,101385.22
2018-01-31T08:20:43.009Z,101378.12
2018-01-31T08:23:12.133Z,101371.53
2018-01-31T08:25:49.008Z,101367.90
2018-01-31T08:28:18.005Z,101366.19
2018-01-31T08:30:47.917Z,101369.60
2018-01-31T08:33:17.844Z,101367.62
2018-01-31T08:35:46.725Z,101361.88
2018-01-31T08:38:16.693Z,101360.30
2018-01-31T08:40:50.446Z,101360.34
2018-01-31T08:43:21.137Z,101356.13
2018-01-31T08:45:50.373Z,101357.90
2018-01-31T08:48:19.333Z,101354.66
2018-01-31T08:50:49.134Z,101355.09
2018-01-31T08:53:21.351Z,101350.81
2018-01-31T08:55:51.338Z,101346.23
2018-01-31T08:58:20.571Z,101342.20
2018-01-31T09:00:50.282Z,101338.16
2018-01-31T09:03:19.176Z,101346.20
2018-01-31T09:05:49.315Z,101343.23
2018-01-31T09:08:18.213Z,101336.55
2018-01-31T09:10:48.000Z,101341.70
2018-01-31T09:13:18.162Z,101333.75
2018-01-31T09:15:47.161Z,101333.42
2018-01-31T09:18:16.951Z,101335.11
2018-01-31T09:20:46.061Z,101337.30
2018-01-31T09:23:16.182Z,101331.03
2018-01-31T09:25:45.585Z,101328.56
2018-01-31T09:28:15.152Z,101327.39
2018-01-31T09:30:47.936Z,101319.91
2018-01-31T09:33:16.931Z,101320.19
2018-01-31T09:35:47.871Z,101317.38
2018-01-31T09:38:16.907Z,101323.05
2018-01-31T09:40:47.556Z,101318.38
2018-01-31T09:43:16.589Z,101315.84
2018-01-31T09:45:46.616Z,101312.34
2018-01-31T09:48:15.675Z,101309.02
2018-01-31T09:50:44.791Z,101316.77
2018-01-31T09:53:13.896Z,101315.17
2018-01-31T09:55:43.859Z,101311.84
2018-01-31T09:58:13.731Z,101315.26
2018-01-31T10:00:42.870Z,101315.30
2018-01-31T10:03:12.778Z,101312.84
2018-01-31T10:05:41.870Z,101303.94
2018-01-31T10:08:12.970Z,101303.17
2018-01-31T10:10:42.010Z,101300.69
2018-01-31T10:13:11.072Z,101298.98
2018-01-31T10:15:40.169Z,101297.33
2018-01-31T10:18:12.033Z,101294.41
2018-01-31T10:20:42.049Z,101294.81
2018-01-31T10:23:11.143Z,101292.69
2018-01-31T10:25:40.139Z,101281.19
2018-01-31T10:28:09.312Z,101291.30
2018-01-31T10:30:38.270Z,101278.64
2018-01-31T10:33:07.451Z,101274.83
2018-01-31T10:35:37.374Z,101282.06
2018-01-31T10:38:07.266Z,101278.76
2018-01-31T10:40:36.363Z,101275.27
2018-01-31T10:43:06.451Z,101274.47
2018-01-31T10:45:36.328Z,101273.24
2018-01-31T10:48:06.040Z,101277.11
2018-01-31T10:50:35.961Z,101273.75
2018-01-31T10:53:05.036Z,101264.05
2018-01-31T10:58:06.591Z,101260.25
2018-01-31T11:00:36.710Z,101257.30
2018-01-31T11:03:06.572Z,101250.98
2018-01-31T11:05:35.411Z,101244.56
2018-01-31T11:08:04.848Z,101239.09
2018-01-31T11:10:34.795Z,101242.07
2018-01-31T11:13:03.931Z,101231.03
2018-01-31T11:15:32.821Z,101240.83
2018-01-31T11:18:02.840Z,101227.63
2018-01-31T11:20:32.860Z,101229.78
2018-01-31T11:23:03.866Z,101226.87
2018-01-31T11:25:32.858Z,101215.81
2018-01-31T11:28:01.789Z,101219.64
2018-01-31T11:30:32.663Z,101222.61
2018-01-31T11:33:01.688Z,101217.09
2018-01-31T11:35:32.455Z,101213.70
2018-01-31T11:38:01.847Z,101210.37
2018-01-31T11:40:30.957Z,101204.82
2018-01-31T11:43:01.794Z,101205.67
2018-01-31T11:45:31.094Z,101202.73
2018-01-31T11:48:00.088Z,101199.75
2018-01-31T11:50:29.079Z,101203.16
2018-01-31T11:52:59.908Z,101195.52
2018-01-31T11:55:29.046Z,101193.34
2018-01-31T11:57:59.142Z,101193.39
2018-01-31T12:00:29.150Z,101177.23
2018-01-31T12:02:58.032Z,101181.84
2018-01-31T12:05:27.139Z,101178.02
2018-01-31T12:07:57.121Z,101175.47
2018-01-31T12:10:37.826Z,101179.30
2018-01-31T12:13:19.430Z,101175.89
2018-01-31T12:16:00.287Z,101171.64
2018-01-31T12:18:40.942Z,101174.20
2018-01-31T12:21:22.698Z,101176.75
2018-01-31T12:24:05.472Z,101178.44
2018-01-31T12:26:46.272Z,101178.45
2018-01-31T12:29:28.010Z,101178.45
2018-01-31T12:32:09.512Z,101168.67
2018-01-31T12:34:51.316Z,101167.82
2018-01-31T12:37:32.186Z,101165.28
2018-01-31T12:40:00.500Z,101167.83
2018-01-31T12:42:28.734Z,101167.05
2018-01-31T12:44:56.909Z,101166.13
2018-01-31T12:47:38.629Z,101170.38
2018-01-31T12:50:19.377Z,101162.68
2018-01-31T12:53:02.125Z,101167.30
2018-01-31T12:58:51.684Z,101159.07
2018-01-31T13:01:45.361Z,101162.00
2018-01-31T13:04:32.348Z,101157.69
2018-01-31T13:07:13.014Z,101157.70
2018-01-31T13:10:03.338Z,101147.93
2018-01-31T13:12:43.693Z,101153.08
2018-01-31T13:15:24.053Z,101147.05
2018-01-31T13:18:13.429Z,101146.22
2018-01-31T13:20:56.076Z,101142.81
2018-01-31T13:23:24.803Z,101148.31
2018-01-31T13:40:25.156Z,101147.36
2018-01-31T13:43:05.390Z,101143.99
2018-01-31T13:45:47.824Z,101145.27
2018-01-31T13:48:42.936Z,101154.48
2018-01-31T13:54:26.350Z,101155.55
2018-01-31T13:57:06.911Z,101154.06
2018-01-31T13:59:47.319Z,101156.17
2018-01-31T14:02:27.879Z,101144.73
2018-01-31T14:05:17.864Z,101150.24
2018-01-31T14:07:59.378Z,101158.27
2018-01-31T14:10:54.666Z,101150.12
2018-01-31T14:13:36.000Z,101146.56
2018-01-31T14:16:16.718Z,101139.73
2018-01-31T14:18:57.284Z,101139.63
2018-01-31T14:21:38.736Z,101138.41
2018-01-31T14:24:33.650Z,101139.67
2018-01-31T14:27:14.238Z,101138.72
2018-01-31T14:29:55.132Z,101137.00
2018-01-31T14:32:35.450Z,101139.09
2018-01-31T14:35:16.855Z,101139.81
2018-01-31T14:37:45.042Z,101143.86
2018-01-31T14:40:13.208Z,101141.26
2018-01-31T14:42:46.600Z,101144.55
2018-01-31T14:45:14.570Z,101141.55
2018-01-31T14:47:42.544Z,101138.92
2018-01-31T14:50:10.788Z,101138.05
2018-01-31T14:52:38.903Z,101139.68
2018-01-31T14:55:06.999Z,101140.41
2018-01-31T14:57:35.427Z,101140.57
2018-01-31T15:00:03.931Z,101138.76
2018-01-31T15:02:32.926Z,101140.32
2018-01-31T15:05:01.761Z,101135.11
2018-01-31T15:07:29.888Z,101133.26
2018-01-31T15:09:57.839Z,101133.91
2018-01-31T15:12:26.386Z,101130.80
2018-01-31T15:14:54.887Z,101140.02
2018-01-31T15:17:23.205Z,101136.54
2018-01-31T15:19:51.406Z,101145.28
2018-01-31T15:22:21.087Z,101140.91
2018-01-31T15:24:49.155Z,101137.53
2018-01-31T15:27:17.431Z,101139.59
2018-01-31T15:29:46.666Z,101144.02
2018-01-31T15:32:14.909Z,101134.61
2018-01-31T15:34:44.491Z,101144.28
2018-01-31T15:37:13.547Z,101139.11
2018-01-31T15:39:42.704Z,101147.05
2018-01-31T15:42:14.475Z,101140.95
2018-01-31T15:44:42.649Z,101140.92
2018-01-31T15:47:10.604Z,101141.84
2018-01-31T15:49:41.622Z,101141.65
2018-01-31T15:52:09.620Z,101141.04
2018-01-31T15:54:37.786Z,101141.35
2018-01-31T15:57:06.769Z,101146.42
2018-01-31T15:59:34.757Z,101143.09
2018-01-31T16:02:02.817Z,101144.83
2018-01-31T16:04:32.543Z,101140.98
2018-01-31T16:07:00.819Z,101140.98
2018-01-31T16:09:28.993Z,101150.06
2018-01-31T16:11:57.873Z,101148.36
2018-01-31T16:14:26.885Z,101146.22
2018-01-31T16:16:57.460Z,101151.29
2018-01-31T16:19:38.897Z,101140.75
2018-01-31T16:22:08.618Z,101148.38
2018-01-31T16:24:37.417Z,101147.99
2018-01-31T16:27:18.267Z,101152.66
2018-01-31T16:30:01.655Z,101150.03
2018-01-31T16:32:45.542Z,101149.09
2018-01-31T16:35:14.379Z,101151.54
2018-01-31T16:37:43.751Z,101148.87
2018-01-31T16:40:15.906Z,101145.59
2018-01-31T16:42:45.183Z,101150.30
2018-01-31T16:45:14.026Z,101140.83
2018-01-31T16:47:43.098Z,101146.20
2018-01-31T16:50:11.785Z,101142.38
2018-01-31T16:52:40.381Z,101148.55
2018-01-31T16:55:10.186Z,101145.95
2018-01-31T16:57:40.329Z,101155.40
2018-01-31T17:00:08.904Z,101151.28
2018-01-31T17:02:38.327Z,101141.23
2018-01-31T17:05:06.954Z,101148.09
2018-01-31T17:07:37.291Z,101141.40
2018-01-31T17:10:07.881Z,101138.02
2018-01-31T17:12:36.495Z,101137.64
2018-01-31T17:15:05.542Z,101137.16
2018-01-31T17:17:34.594Z,101135.45
2018-01-31T17:20:03.601Z,101132.03
2018-01-31T17:22:32.606Z,101136.97
2018-01-31T17:25:02.398Z,101141.55
2018-01-31T17:27:31.254Z,101143.96
2018-01-31T17:30:00.149Z,101142.17
2018-01-31T17:32:29.853Z,101144.10
2018-01-31T17:34:58.834Z,101146.13
2018-01-31T17:37:27.788Z,101149.73
2018-01-31T17:39:58.497Z,101156.44
2018-01-31T17:42:27.443Z,101160.87
2018-01-31T17:44:56.465Z,101155.21
2018-01-31T17:47:25.374Z,101157.62
2018-01-31T17:49:54.337Z,101155.22
2018-01-31T17:52:23.124Z,101156.36
2018-01-31T17:57:22.678Z,101155.34
2018-01-31T17:59:51.705Z,101160.23
2018-01-31T18:02:21.502Z,101155.37
2018-01-31T18:04:50.327Z,101152.69
2018-01-31T18:07:19.631Z,101157.25
2018-01-31T18:09:48.638Z,101148.39
2018-01-31T18:12:17.487Z,101147.20
2018-01-31T18:14:46.502Z,101143.83
2018-01-31T18:17:20.537Z,101141.87
2018-01-31T18:19:49.529Z,101144.69
2018-01-31T18:22:18.401Z,101145.39
2018-01-31T18:24:47.286Z,101144.20
2018-01-31T18:27:16.201Z,101144.98
2018-01-31T18:29:45.040Z,101140.68
2018-01-31T18:32:16.642Z,101139.77
2018-01-31T18:34:45.646Z,101138.97
2018-01-31T18:37:14.656Z,101140.06
2018-01-31T18:39:45.742Z,101139.95
2018-01-31T18:42:14.655Z,101140.48
2018-01-31T18:44:43.591Z,101137.95
2018-01-31T18:47:15.191Z,101133.57
2018-01-31T18:49:44.032Z,101135.52
2018-01-31T18:52:13.002Z,101133.23
2018-01-31T18:54:42.008Z,101129.45
2018-01-31T18:57:10.941Z,101129.14
2018-01-31T18:59:39.908Z,101123.56
2018-01-31T19:02:10.171Z,101125.50
2018-01-31T19:04:41.214Z,101114.18
2018-01-31T19:07:10.079Z,101111.75
2018-01-31T19:09:39.951Z,101105.75
2018-01-31T19:12:09.112Z,101101.87
2018-01-31T19:14:38.387Z,101103.84
2018-01-31T19:17:09.550Z,101103.04
2018-01-31T19:19:38.707Z,101101.13
2018-01-31T19:22:07.671Z,101100.84
2018-01-31T19:24:38.542Z,101096.91
2018-01-31T19:27:07.523Z,101097.10
2018-01-31T19:29:37.689Z,101093.28
2018-01-31T19:32:06.933Z,101093.33
2018-01-31T19:34:35.835Z,101086.28
2018-01-31T19:37:04.717Z,101090.38
2018-01-31T19:39:36.365Z,101083.63
2018-01-31T19:42:05.341Z,101077.02
2018-01-31T19:44:34.185Z,101075.46
2018-01-31T19:47:03.161Z,101078.97
2018-01-31T19:49:32.078Z,101079.36
2018-01-31T19:52:00.981Z,101076.92
2018-01-31T19:54:30.171Z,101054.92
2018-01-31T19:56:59.091Z,101065.60
2018-01-31T19:59:28.260Z,101069.34
2018-01-31T20:01:57.161Z,101073.16
2018-01-31T20:04:26.090Z,101083.27
2018-01-31T20:06:55.185Z,101072.76
2018-01-31T20:09:28.457Z,101076.50
2018-01-31T20:11:57.356Z,101073.59
2018-01-31T20:14:26.345Z,101064.95
2018-01-31T20:16:56.173Z,101067.83
2018-01-31T20:19:25.036Z,101062.72
2018-01-31T20:21:54.002Z,101066.52
2018-01-31T20:24:27.359Z,101065.13
2018-01-31T20:26:56.233Z,101056.94
2018-01-31T20:29:25.201Z,101054.33
2018-01-31T20:31:54.114Z,101048.34
2018-01-31T20:34:22.940Z,101043.75
2018-01-31T20:36:51.819Z,101046.19
2018-01-31T20:39:21.059Z,101039.63
2018-01-31T20:41:49.932Z,101038.87
2018-01-31T20:44:18.852Z,101041.47
2018-01-31T20:46:47.932Z,101041.97
2018-01-31T20:49:16.859Z,101043.21
2018-01-31T20:51:45.692Z,101043.58
2018-01-31T20:54:14.683Z,101043.36
2018-01-31T20:56:43.624Z,101046.23
2018-01-31T20:59:12.471Z,101039.81
2018-01-31T21:01:43.872Z,101042.19
2018-01-31T21:04:13.005Z,101034.70
2018-01-31T21:06:42.478Z,101042.55
2018-01-31T21:09:12.342Z,101036.86
2018-01-31T21:11:42.112Z,101028.59
2018-01-31T21:14:11.106Z,101030.34
2018-01-31T21:16:40.912Z,101029.55
2018-01-31T21:19:09.829Z,101029.88
2018-01-31T21:21:38.744Z,101025.19
2018-01-31T21:24:09.744Z,101024.78
2018-01-31T21:26:38.667Z,101022.84
2018-01-31T21:29:07.621Z,101021.78
2018-01-31T21:31:37.726Z,101014.99
2018-01-31T21:34:06.546Z,101013.72
2018-01-31T21:36:35.516Z,101014.05
2018-01-31T21:39:04.712Z,101012.64
2018-01-31T21:41:34.691Z,101005.95
2018-01-31T21:44:03.662Z,101013.17
2018-01-31T21:46:32.570Z,101010.02
2018-01-31T21:49:01.391Z,101008.59
2018-01-31T21:51:30.254Z,101000.79
2018-01-31T21:54:01.310Z,100995.84
2018-01-31T21:56:30.175Z,100995.66
2018-01-31T21:58:59.060Z,101004.80
2018-01-31T22:01:29.053Z,101006.90
2018-01-31T22:04:00.229Z,101001.45
2018-01-31T22:06:29.086Z,100993.05
2018-01-31T22:08:58.905Z,100986.78
2018-01-31T22:11:27.970Z,100988.42
2018-01-31T22:13:56.850Z,100991.04
2018-01-31T22:16:26.609Z,100986.50
2018-01-31T22:18:55.430Z,100988.28
2018-01-31T22:21:24.362Z,100987.97
2018-01-31T22:23:53.280Z,100983.05
2018-01-31T22:26:22.189Z,100986.25
2018-01-31T22:28:51.033Z,100977.20
2018-01-31T22:31:21.076Z,100977.80
2018-01-31T22:33:50.101Z,100974.62
2018-01-31T22:36:19.065Z,100978.13
2018-01-31T22:38:53.376Z,100977.05
2018-01-31T22:41:23.601Z,100970.20
2018-01-31T22:43:52.835Z,100967.08
2018-01-31T22:46:25.380Z,100964.02
2018-01-31T22:48:54.422Z,100960.14
2018-01-31T22:51:23.786Z,100955.30
2018-01-31T22:53:53.928Z,100953.19
2018-01-31T22:56:24.683Z,100947.32
2018-01-31T22:58:53.941Z,100949.41
2018-01-31T23:01:24.079Z,100950.20
2018-01-31T23:03:54.347Z,100947.61
2018-01-31T23:06:25.316Z,100949.35
2018-01-31T23:08:54.925Z,100942.86
2018-01-31T23:11:39.075Z,100941.39
2018-01-31T23:14:13.698Z,100937.33
2018-01-31T23:16:43.615Z,100936.56
2018-01-31T23:19:13.359Z,100937.25
2018-01-31T23:21:45.734Z,100927.65
2018-01-31T23:24:14.925Z,100927.02
2018-01-31T23:26:44.811Z,100922.69
2018-01-31T23:29:14.552Z,100918.56
2018-01-31T23:31:47.303Z,100913.02
2018-01-31T23:34:17.513Z,100909.13
2018-01-31T23:36:46.555Z,100901.05
2018-01-31T23:39:15.748Z,100899.48
2018-01-31T23:41:44.743Z,100892.05
2018-01-31T23:44:13.840Z,100891.87
2018-01-31T23:46:43.564Z,100888.75
2018-01-31T23:49:12.757Z,100890.48
2018-01-31T23:51:43.389Z,100892.98
2018-01-31T23:54:14.261Z,100889.59
2018-01-31T23:56:43.388Z,100889.72
2018-01-31T23:59:13.201Z,100892.05
